Time;durP1;ratioP1;P1;durP2;ratioP2;P2;SDS_P1;SDS_P2;PMS_P1;PMS_P2;Temp;Humidity;BMP_temperature;BMP_pressure;BME280_temperature;BME280_humidity;BME280_pressure;Samples;Min_cycle;Max_cycle;Signal;HPM_P1;HPM_P2
2024/03/07 00:00:26;;;;;;;29.50;18.70;;;;;;;3.90;100.00;97935.28;6323856;28;20190;-55
2024/03/07 00:03:28;;;;;;;26.17;18.33;;;;;;;3.88;100.00;97944.19;6327467;28;20193;-48
2024/03/07 00:06:30;;;;;;;26.83;19.03;;;;;;;2.98;100.00;97825.59;6305404;22;20236;-92
2024/03/07 00:09:34;;;;;;;30.93;18.97;;;;;;;2.87;100.00;97792.72;6258971;28;20216;-92
2024/03/07 00:12:41;;;;;;;25.67;17.93;;;;;;;2.48;100.00;97727.44;6247492;28;20199;-92
2024/03/07 00:15:43;;;;;;;28.57;20.03;;;;;;;2.22;100.00;97685.97;6275407;28;20199;-92
2024/03/07 00:18:46;;;;;;;25.47;18.70;;;;;;;2.29;100.00;97718.38;6260834;28;20389;-92
2024/03/07 00:21:48;;;;;;;28.87;20.33;;;;;;;1.97;100.00;97688.97;6255632;28;20204;-92
2024/03/07 00:24:50;;;;;;;31.83;19.93;;;;;;;2.67;100.00;97774.16;6274386;28;20208;-92
2024/03/07 00:27:53;;;;;;;29.80;19.80;;;;;;;3.28;100.00;97918.38;6261177;28;20215;-91
2024/03/07 00:30:56;;;;;;;28.77;19.97;;;;;;;3.25;100.00;97872.22;6277057;28;20183;-92
2024/03/07 00:33:59;;;;;;;27.30;19.13;;;;;;;1.69;100.00;97619.78;6277042;28;20246;-92
2024/03/07 00:37:15;;;;;;;29.87;19.30;;;;;;;2.73;100.00;97786.53;6275844;28;20191;-91
2024/03/07 00:40:17;;;;;;;30.80;20.70;;;;;;;1.41;100.00;97581.13;6274319;28;20845;-92
2024/03/07 00:43:20;;;;;;;29.67;20.63;;;;;;;2.53;100.00;97785.53;6244587;28;20196;-92
2024/03/07 00:46:22;;;;;;;29.20;20.37;;;;;;;2.82;100.00;97831.94;6249918;28;20215;-92
2024/03/07 00:49:24;;;;;;;32.73;22.20;;;;;;;1.92;100.00;97707.13;6251263;28;20196;-92
2024/03/07 00:52:26;;;;;;;31.30;20.67;;;;;;;3.58;100.00;97926.94;6273806;28;20337;-92
2024/03/07 00:55:32;;;;;;;30.23;22.07;;;;;;;3.53;100.00;97929.31;6252430;28;20204;-95
2024/03/07 00:58:36;;;;;;;34.33;22.57;;;;;;;1.21;100.00;97588.78;6268511;28;20197;-95
2024/03/07 01:01:41;;;;;;;30.40;20.90;;;;;;;2.67;100.00;97802.28;6246489;28;20259;-95
2024/03/07 01:04:45;;;;;;;38.23;21.83;;;;;;;1.37;100.00;97577.25;6237661;28;20667;-92
2024/03/07 01:07:47;;;;;;;32.63;22.30;;;;;;;2.90;100.00;97838.88;6232780;28;20238;-92
2024/03/07 01:10:50;;;;;;;33.73;21.90;;;;;;;1.51;100.00;97576.38;6265854;28;20251;-93
2024/03/07 01:13:52;;;;;;;31.20;22.33;;;;;;;1.39;100.00;97595.44;6273969;28;20219;-96
2024/03/07 01:16:56;;;;;;;32.87;21.70;;;;;;;1.50;100.00;97590.50;6255127;28;20199;-94
2024/03/07 01:20:01;;;;;;;30.47;21.43;;;;;;;1.38;100.00;97578.88;6259128;28;20195;-95
2024/03/07 01:23:05;;;;;;;30.97;21.57;;;;;;;1.36;100.00;97535.44;6266395;28;20207;-92
2024/03/07 01:26:08;;;;;;;34.30;22.73;;;;;;;0.97;100.00;97492.88;6278297;28;20618;-92
2024/03/07 01:29:11;;;;;;;31.57;22.67;;;;;;;2.54;100.00;97766.94;6236523;28;20213;-92
2024/03/07 01:32:13;;;;;;;29.73;21.23;;;;;;;1.26;100.00;97533.94;6228736;28;20211;-93
2024/03/07 01:35:15;;;;;;;30.20;21.60;;;;;;;1.53;100.00;97573.59;6259208;28;20196;-92
2024/03/07 01:38:18;;;;;;;33.67;23.13;;;;;;;2.48;100.00;97730.09;6251936;28;20663;-93
2024/03/07 01:41:20;;;;;;;34.73;22.80;;;;;;;3.06;100.00;97804.44;6253200;28;20228;-93
2024/03/07 01:44:22;;;;;;;34.07;24.00;;;;;;;2.49;100.00;97745.66;6255282;28;20195;-93
2024/03/07 01:47:25;;;;;;;32.90;23.07;;;;;;;3.87;100.00;97925.94;6238154;28;20222;-93
2024/03/07 01:50:27;;;;;;;35.40;25.63;;;;;;;3.49;100.00;97894.66;6253977;28;20196;-93
2024/03/07 01:53:31;;;;;;;36.33;24.27;;;;;;;3.74;100.00;97925.81;6254070;28;20188;-93
2024/03/07 01:56:33;;;;;;;32.00;24.43;;;;;;;2.02;100.00;97641.94;6254275;28;20682;-93
2024/03/07 01:59:36;;;;;;;36.23;24.47;;;;;;;1.47;100.00;97569.06;6270117;28;20207;-93
2024/03/07 02:02:42;;;;;;;33.17;23.43;;;;;;;3.29;100.00;97843.66;6255333;28;20200;-96
2024/03/07 02:05:45;;;;;;;36.00;24.03;;;;;;;2.97;100.00;97776.63;6253554;28;20199;-93
2024/03/07 02:08:47;;;;;;;32.20;22.93;;;;;;;1.76;100.00;97624.09;6253800;28;20242;-92
2024/03/07 02:11:50;;;;;;;33.00;23.17;;;;;;;1.80;100.00;97648.97;6269590;28;20204;-93
2024/03/07 02:14:52;;;;;;;36.40;23.40;;;;;;;1.79;100.00;97599.28;6253691;28;20191;-93
2024/03/07 02:17:55;;;;;;;33.00;23.47;;;;;;;2.85;100.00;97771.84;6255310;28;20274;-93
2024/03/07 02:20:57;;;;;;;31.67;23.20;;;;;;;1.56;100.00;97541.69;6238496;28;20184;-92
2024/03/07 02:24:15;;;;;;;35.60;23.93;;;;;;;1.73;100.00;97631.56;6274394;28;20206;-95
2024/03/07 02:27:30;;;;;;;35.03;23.40;;;;;;;1.80;100.00;97641.09;6277209;28;20239;-95
2024/03/07 02:31:20;;;;;;;31.83;23.30;;;;;;;3.74;100.00;97920.56;6276855;28;20270;-96
2024/03/07 02:34:27;;;;;;;30.33;21.33;;;;;;;2.75;100.00;97747.69;6247782;28;20201;-96
2024/03/07 02:37:53;;;;;;;31.77;22.43;;;;;;;3.67;100.00;97888.09;6299921;22;20231;-53
2024/03/07 02:40:56;;;;;;;29.30;21.23;;;;;;;3.79;100.00;97890.03;6284956;28;20183;-53
2024/03/07 02:43:58;;;;;;;30.47;21.80;;;;;;;3.69;100.00;97889.53;6273002;28;20269;-52
2024/03/07 02:47:03;;;;;;;33.30;22.83;;;;;;;3.62;100.00;97886.03;6284518;28;20762;-53
2024/03/07 02:50:06;;;;;;;30.77;21.87;;;;;;;3.84;100.00;97892.88;6283672;28;20282;-53
2024/03/07 02:53:08;;;;;;;30.70;21.17;;;;;;;3.75;100.00;97886.13;6280406;28;20270;-55
2024/03/07 02:56:11;;;;;;;30.97;22.50;;;;;;;3.63;100.00;97885.84;6284648;28;20204;-54
2024/03/07 02:59:13;;;;;;;30.87;21.63;;;;;;;3.79;100.00;97887.38;6279155;28;20759;-53
2024/03/07 03:02:15;;;;;;;35.23;21.90;;;;;;;3.86;100.00;97892.69;6276615;28;20670;-50
2024/03/07 03:05:18;;;;;;;28.43;20.60;;;;;;;3.81;100.00;97895.09;6289013;28;20849;-53
2024/03/07 03:08:22;;;;;;;32.90;21.27;;;;;;;3.86;100.00;97896.13;6289780;28;20212;-55
2024/03/07 03:11:25;;;;;;;28.23;20.00;;;;;;;3.87;100.00;97889.03;6292100;28;20222;-57
2024/03/07 03:14:27;;;;;;;28.73;20.17;;;;;;;3.80;100.00;97899.53;6289340;28;20195;-51
2024/03/07 03:17:30;;;;;;;29.23;19.80;;;;;;;3.76;100.00;97893.03;6286098;28;20673;-55
2024/03/07 03:20:38;;;;;;;32.27;19.90;;;;;;;3.75;100.00;97893.22;6279334;28;20199;-56
2024/03/07 03:23:41;;;;;;;26.87;19.43;;;;;;;3.78;100.00;97895.47;6284335;28;20225;-57
2024/03/07 03:26:44;;;;;;;29.27;19.53;;;;;;;3.75;100.00;97891.41;6286405;28;20799;-54
2024/03/07 03:29:47;;;;;;;27.17;19.53;;;;;;;3.77;100.00;97891.22;6288239;28;20661;-49
2024/03/07 03:32:50;;;;;;;30.70;19.67;;;;;;;3.80;100.00;97896.09;6291769;28;20337;-56
2024/03/07 03:35:52;;;;;;;28.00;19.90;;;;;;;3.82;100.00;97896.72;6283515;28;20194;-52
2024/03/07 03:38:54;;;;;;;24.73;17.77;;;;;;;3.77;100.00;97891.22;6280855;28;20322;-55
2024/03/07 03:41:56;;;;;;;26.93;18.23;;;;;;;3.85;100.00;97897.16;6281924;28;20198;-53
2024/03/07 03:44:59;;;;;;;24.57;16.80;;;;;;;3.95;100.00;97898.63;6274449;28;20211;-53
2024/03/07 03:48:02;;;;;;;25.30;17.27;;;;;;;4.01;100.00;97892.56;6280305;28;20195;-54
2024/03/07 03:51:07;;;;;;;24.40;16.37;;;;;;;3.91;100.00;97895.56;6281825;28;20855;-53
2024/03/07 03:54:10;;;;;;;22.33;16.10;;;;;;;3.88;100.00;97888.03;6283929;28;20185;-54
2024/03/07 03:57:12;;;;;;;24.07;16.30;;;;;;;3.86;100.00;97885.59;6287167;28;20186;-56
2024/03/07 04:00:14;;;;;;;23.10;15.97;;;;;;;3.75;100.00;97877.41;6288670;28;20205;-55
2024/03/07 04:03:17;;;;;;;25.70;15.90;;;;;;;3.84;100.00;97887.63;6284943;28;20278;-54
2024/03/07 04:06:19;;;;;;;24.17;15.30;;;;;;;3.88;100.00;97894.09;6290599;28;20674;-56
2024/03/07 04:09:21;;;;;;;21.77;14.27;;;;;;;3.85;100.00;97888.44;6260102;28;20195;-57
2024/03/07 04:12:23;;;;;;;22.03;14.30;;;;;;;3.87;100.00;97895.13;6279540;28;20611;-53
2024/03/07 04:15:30;;;;;;;20.60;13.47;;;;;;;3.93;100.00;97882.97;6282963;28;20278;-53
2024/03/07 04:18:37;;;;;;;20.93;14.03;;;;;;;3.88;100.00;97895.94;6281484;28;20203;-53
2024/03/07 04:21:39;;;;;;;19.43;13.17;;;;;;;4.04;100.00;97890.38;6284323;28;20201;-53
2024/03/07 04:24:42;;;;;;;20.13;13.30;;;;;;;3.92;100.00;97883.19;6284513;28;20195;-56
2024/03/07 04:27:44;;;;;;;19.97;13.10;;;;;;;3.90;100.00;97874.66;6274923;28;20650;-54
2024/03/07 04:30:49;;;;;;;20.13;13.57;;;;;;;3.92;100.00;97883.19;6275239;28;20658;-56
2024/03/07 04:33:51;;;;;;;17.93;12.27;;;;;;;3.96;100.00;97881.78;6279752;28;20553;-56
2024/03/07 04:36:53;;;;;;;17.00;11.93;;;;;;;3.94;100.00;97892.53;6276821;28;20197;-56
2024/03/07 04:39:56;;;;;;;19.23;13.00;;;;;;;3.94;100.00;97891.69;6283935;28;20226;-54
2024/03/07 04:42:58;;;;;;;18.30;12.17;;;;;;;3.95;100.00;97888.09;6279973;28;20670;-56
2024/03/07 04:46:00;;;;;;;18.70;12.47;;;;;;;4.05;100.00;97901.72;6282039;28;20209;-55
2024/03/07 04:49:02;;;;;;;18.30;12.83;;;;;;;3.97;100.00;97905.31;6282119;28;20210;-53
2024/03/07 04:52:05;;;;;;;18.53;11.33;;;;;;;4.01;100.00;97897.84;6285805;28;20199;-57
2024/03/07 04:55:10;;;;;;;18.73;12.77;;;;;;;4.03;100.00;97901.91;6286788;28;20562;-54
2024/03/07 04:58:12;;;;;;;16.77;11.33;;;;;;;4.09;100.00;97902.97;6276393;28;21188;-56
2024/03/07 05:01:15;;;;;;;18.33;12.73;;;;;;;3.89;100.00;97892.28;6271927;28;20333;-53
2024/03/07 05:04:18;;;;;;;17.17;11.93;;;;;;;3.98;100.00;97912.22;6273886;28;20191;-56
2024/03/07 05:07:20;;;;;;;17.30;11.83;;;;;;;4.07;100.00;97916.31;6276824;28;20692;-55
2024/03/07 05:10:22;;;;;;;17.73;12.13;;;;;;;3.97;100.00;97910.59;6282389;28;20194;-56
2024/03/07 05:13:24;;;;;;;17.30;12.70;;;;;;;3.91;100.00;97916.63;6280423;28;20202;-51
2024/03/07 05:16:33;;;;;;;19.53;13.00;;;;;;;3.87;100.00;97921.47;6279948;28;20201;-56
2024/03/07 05:19:36;;;;;;;21.03;13.40;;;;;;;3.86;100.00;97917.22;6257978;28;20199;-53
2024/03/07 05:22:40;;;;;;;19.50;13.70;;;;;;;4.01;100.00;97913.66;6270339;28;20198;-56
2024/03/07 05:25:45;;;;;;;19.93;13.77;;;;;;;3.90;100.00;97908.94;6277911;28;20705;-53
2024/03/07 05:28:48;;;;;;;20.37;14.67;;;;;;;4.11;100.00;97916.75;6287995;28;20295;-55
2024/03/07 05:31:50;;;;;;;24.23;15.30;;;;;;;3.97;100.00;97910.59;6282548;28;20194;-50
2024/03/07 05:34:56;;;;;;;23.80;15.43;;;;;;;3.90;100.00;97915.00;6274194;28;20206;-54
2024/03/07 05:37:59;;;;;;;22.67;16.17;;;;;;;3.86;100.00;97919.84;6278999;28;20234;-51
2024/03/07 05:41:02;;;;;;;27.83;17.40;;;;;;;3.79;100.00;97928.69;6280401;28;20201;-55
2024/03/07 05:44:08;;;;;;;24.00;16.30;;;;;;;3.86;100.00;97917.22;6278716;28;20195;-52
2024/03/07 05:47:13;;;;;;;22.90;15.57;;;;;;;3.77;100.00;97905.19;6276764;28;20211;-54
2024/03/07 05:50:16;;;;;;;23.23;15.23;;;;;;;3.88;100.00;97925.72;6280855;28;20562;-52
2024/03/07 05:53:18;;;;;;;24.37;15.67;;;;;;;3.87;100.00;97924.09;6274020;28;20495;-56
2024/03/07 05:56:20;;;;;;;22.30;15.20;;;;;;;3.81;100.00;97924.06;6272771;28;20245;-55
2024/03/07 05:59:23;;;;;;;25.77;16.23;;;;;;;3.83;100.00;97930.75;6285613;28;20183;-55
2024/03/07 06:02:25;;;;;;;22.40;15.23;;;;;;;3.92;100.00;97933.25;6272561;28;20202;-56
2024/03/07 06:05:28;;;;;;;21.30;14.97;;;;;;;3.96;100.00;97929.22;6279245;28;20236;-56
2024/03/07 06:08:30;;;;;;;19.30;14.43;;;;;;;3.83;100.00;97929.94;6278843;28;20690;-55
2024/03/07 06:11:34;;;;;;;21.13;15.20;;;;;;;3.80;100.00;97943.53;6277854;28;20211;-55
2024/03/07 06:14:36;;;;;;;22.83;14.70;;;;;;;3.84;100.00;97942.97;6280106;28;20229;-56
2024/03/07 06:17:38;;;;;;;19.60;14.13;;;;;;;3.93;100.00;97933.06;6285606;28;20232;-53
2024/03/07 06:20:42;;;;;;;18.73;13.83;;;;;;;3.79;100.00;97934.81;6267185;28;20679;-55
2024/03/07 06:23:44;;;;;;;21.47;15.20;;;;;;;3.91;100.00;97937.72;6267157;28;20573;-56
2024/03/07 06:26:49;;;;;;;18.63;13.27;;;;;;;3.86;100.00;97932.22;6279751;28;20195;-52
2024/03/07 06:29:52;;;;;;;21.20;14.83;;;;;;;3.91;100.00;97939.53;6280450;28;20190;-55
2024/03/07 06:32:55;;;;;;;18.50;12.87;;;;;;;3.95;100.00;97938.97;6285128;28;20195;-54
2024/03/07 06:35:58;;;;;;;21.40;13.83;;;;;;;4.00;100.00;97943.66;6270540;28;20683;-49
2024/03/07 06:39:00;;;;;;;18.83;13.33;;;;;;;3.95;100.00;97946.06;6277486;28;20222;-56
2024/03/07 06:42:03;;;;;;;19.77;12.20;;;;;;;3.90;100.00;97944.00;6278616;28;20205;-55
2024/03/07 06:45:06;;;;;;;19.37;13.13;;;;;;;3.82;100.00;97950.22;6282947;28;20411;-57
2024/03/07 06:48:09;;;;;;;19.43;12.90;;;;;;;3.97;100.00;97950.13;6289361;28;20313;-53
2024/03/07 06:51:12;;;;;;;17.80;12.20;;;;;;;3.84;100.00;97934.22;6278752;28;20554;-54
2024/03/07 06:54:14;;;;;;;18.53;12.43;;;;;;;3.98;100.00;97956.19;6284869;28;20640;-56
2024/03/07 06:57:18;;;;;;;17.70;12.57;;;;;;;3.85;100.00;97956.94;6278457;28;20646;-53
2024/03/07 07:00:20;;;;;;;16.93;12.00;;;;;;;4.01;99.06;97958.47;6283921;28;20274;-56
2024/03/07 07:03:23;;;;;;;16.30;11.97;;;;;;;4.00;99.69;97959.47;6272962;28;20200;-53
2024/03/07 07:06:26;;;;;;;16.07;11.47;;;;;;;3.96;99.50;97964.31;6281767;28;20191;-52
2024/03/07 07:09:28;;;;;;;16.20;11.83;;;;;;;4.07;98.81;97968.22;6286620;28;20327;-55
2024/03/07 07:12:30;;;;;;;14.63;11.23;;;;;;;4.01;98.68;97966.38;6283361;28;20210;-53
2024/03/07 07:15:33;;;;;;;15.13;10.63;;;;;;;4.08;95.41;97977.75;6288006;28;20195;-56
2024/03/07 07:18:35;;;;;;;14.93;10.63;;;;;;;4.03;94.78;97970.44;6278425;28;20195;-52
2024/03/07 07:21:39;;;;;;;12.00;9.23;;;;;;;3.90;93.56;97972.19;6279475;28;20187;-53
2024/03/07 07:24:41;;;;;;;12.20;8.70;;;;;;;3.77;92.90;97973.69;6277775;28;20195;-56
2024/03/07 07:27:45;;;;;;;11.93;8.67;;;;;;;3.76;93.31;97968.63;6284409;28;20211;-54
2024/03/07 07:30:48;;;;;;;11.77;8.70;;;;;;;3.85;94.28;97970.13;6280379;28;20201;-56
2024/03/07 07:33:50;;;;;;;13.70;9.63;;;;;;;3.80;92.41;97965.41;6284359;28;20675;-57
2024/03/07 07:36:53;;;;;;;12.60;9.77;;;;;;;3.87;93.13;97966.28;6288333;28;20191;-56
2024/03/07 07:39:55;;;;;;;11.80;9.03;;;;;;;3.96;93.70;97971.41;6281317;28;20234;-53
2024/03/07 07:42:57;;;;;;;13.33;10.10;;;;;;;3.90;92.72;97966.91;6289461;28;20207;-54
2024/03/07 07:46:01;;;;;;;12.40;9.17;;;;;;;3.79;93.79;97965.59;6291831;28;20191;-56
2024/03/07 07:49:03;;;;;;;13.53;9.40;;;;;;;4.04;91.32;97973.88;6288026;28;20248;-55
2024/03/07 07:52:07;;;;;;;14.47;10.13;;;;;;;3.85;90.50;97967.47;6287503;28;20205;-55
2024/03/07 07:55:15;;;;;;;13.73;10.40;;;;;;;3.86;90.59;97977.00;6283290;28;20203;-55
2024/03/07 07:58:17;;;;;;;12.90;10.00;;;;;;;3.80;93.02;97989.13;6282245;28;20243;-57
2024/03/07 08:01:20;;;;;;;12.37;9.43;;;;;;;3.95;91.45;97977.69;6280924;28;20204;-51
2024/03/07 08:04:22;;;;;;;14.37;10.43;;;;;;;3.90;92.30;97974.81;6278358;28;20206;-55
2024/03/07 08:07:24;;;;;;;14.83;10.80;;;;;;;4.08;91.26;97980.41;6282184;28;20196;-58
2024/03/07 08:10:31;;;;;;;14.10;10.07;;;;;;;4.02;89.62;97968.00;6282602;28;20222;-57
2024/03/07 08:13:33;;;;;;;13.83;10.10;;;;;;;4.07;89.62;97970.88;6275087;28;20325;-54
2024/03/07 08:16:35;;;;;;;14.70;10.60;;;;;;;3.97;89.11;97946.66;6287894;28;20272;-56
2024/03/07 08:19:42;;;;;;;17.87;10.50;;;;;;;4.20;90.11;97967.50;6284533;28;20209;-56
2024/03/07 08:22:44;;;;;;;12.60;9.93;;;;;;;4.06;88.56;97980.59;6265349;28;20191;-53
2024/03/07 08:25:46;;;;;;;11.77;9.20;;;;;;;4.05;87.53;97976.34;6279007;28;20197;-53
2024/03/07 08:28:49;;;;;;;15.10;9.77;;;;;;;3.93;87.14;97977.06;6284069;28;20214;-57
2024/03/07 08:31:51;;;;;;;14.63;9.80;;;;;;;3.88;87.91;97983.72;6281690;28;20205;-56
2024/03/07 08:34:54;;;;;;;13.43;9.23;;;;;;;3.96;88.07;97974.84;6289294;28;20209;-56
2024/03/07 08:38:00;;;;;;;15.40;9.23;;;;;;;4.04;88.71;97976.50;6277096;28;20238;-53
2024/03/07 08:41:03;;;;;;;13.30;8.93;;;;;;;4.07;88.82;97970.88;6276092;28;20867;-54
2024/03/07 08:44:05;;;;;;;12.37;9.40;;;;;;;4.15;87.59;97970.72;6287567;28;20203;-50
2024/03/07 08:47:07;;;;;;;12.13;8.53;;;;;;;4.46;86.47;97966.84;6280273;28;20566;-55
2024/03/07 08:50:10;;;;;;;13.50;8.73;;;;;;;4.54;84.17;97959.56;6277555;28;20206;-56
2024/03/07 08:53:12;;;;;;;11.47;8.97;;;;;;;4.85;84.45;97945.06;6280418;28;20221;-54
2024/03/07 08:56:14;;;;;;;11.73;8.60;;;;;;;5.00;81.37;97950.19;6279372;28;20206;-57
2024/03/07 08:59:17;;;;;;;11.87;8.30;;;;;;;5.04;81.80;97954.88;6275745;28;20723;-54
2024/03/07 09:02:20;;;;;;;11.93;8.70;;;;;;;5.26;78.19;97952.06;6282092;28;20200;-54
2024/03/07 09:05:22;;;;;;;9.30;7.37;;;;;;;5.47;74.55;97957.19;6289394;28;20586;-56
2024/03/07 09:08:26;;;;;;;10.60;7.43;;;;;;;5.70;76.24;97944.34;6274748;28;20206;-57
2024/03/07 09:11:32;;;;;;;10.63;7.67;;;;;;;5.99;73.20;97954.75;6287823;28;20200;-54
2024/03/07 09:14:35;;;;;;;9.60;7.17;;;;;;;5.70;70.99;97954.94;6284186;28;20206;-55
2024/03/07 09:17:38;;;;;;;10.63;7.13;;;;;;;6.01;72.45;97952.69;6280052;28;20570;-54
2024/03/07 09:20:41;;;;;;;8.37;6.90;;;;;;;6.17;70.64;97952.28;6280831;28;20198;-54
2024/03/07 09:23:43;;;;;;;11.07;7.37;;;;;;;5.72;70.92;97952.09;6266260;28;20191;-51
2024/03/07 09:26:46;;;;;;;12.07;7.27;;;;;;;5.47;70.89;97951.06;6281088;28;20662;-56
2024/03/07 09:29:48;;;;;;;9.93;7.43;;;;;;;5.37;75.53;97960.22;6272447;28;20207;-54
2024/03/07 09:32:51;;;;;;;11.73;8.30;;;;;;;5.35;72.35;97959.59;6273697;28;20202;-56
2024/03/07 09:35:53;;;;;;;9.93;7.93;;;;;;;5.10;72.98;97961.19;6282030;28;20551;-53
2024/03/07 09:38:56;;;;;;;12.03;7.97;;;;;;;5.06;73.58;97946.75;6281751;28;20237;-50
2024/03/07 09:41:59;;;;;;;11.00;7.77;;;;;;;4.97;74.81;97950.56;6268176;28;20268;-49
2024/03/07 09:45:03;;;;;;;10.63;7.83;;;;;;;4.98;75.29;97950.41;6282237;28;20220;-57
2024/03/07 09:48:08;;;;;;;12.17;8.67;;;;;;;4.89;76.77;97962.94;6264409;28;20214;-54
2024/03/07 09:51:17;;;;;;;12.10;8.07;;;;;;;4.86;74.65;97973.09;6282266;28;20567;-51
2024/03/07 09:54:19;;;;;;;11.90;8.73;;;;;;;4.92;74.77;97967.00;6287341;28;20191;-54
2024/03/07 09:57:22;;;;;;;13.97;9.00;;;;;;;4.71;75.55;97970.59;6279908;28;20200;-56
2024/03/07 10:00:26;;;;;;;13.70;8.50;;;;;;;4.78;74.66;97974.09;6261076;28;20191;-54
2024/03/07 10:03:34;;;;;;;12.23;8.57;;;;;;;4.76;74.89;97981.38;6281141;28;20195;-57
2024/03/07 10:06:45;;;;;;;13.90;8.43;;;;;;;4.75;75.80;97971.84;6282474;28;20321;-52
2024/03/07 10:09:47;;;;;;;12.77;8.70;;;;;;;4.82;75.88;97977.13;6282218;28;20211;-55
2024/03/07 10:12:53;;;;;;;11.97;8.50;;;;;;;4.87;74.52;97938.56;6286678;28;20190;-56
2024/03/07 10:15:59;;;;;;;11.90;8.07;;;;;;;5.06;72.76;97968.66;6290205;28;20195;-56
2024/03/07 10:19:05;;;;;;;11.70;8.00;;;;;;;5.10;72.82;97969.91;6266668;28;20188;-53
2024/03/07 10:22:07;;;;;;;13.17;8.23;;;;;;;5.18;70.25;97961.81;6286090;28;20208;-55
2024/03/07 10:25:10;;;;;;;11.53;7.47;;;;;;;5.55;69.54;97972.81;6286986;28;20191;-55
2024/03/07 10:28:12;;;;;;;10.23;7.90;;;;;;;5.36;70.91;97965.69;6283610;28;20660;-55
2024/03/07 10:31:28;;;;;;;11.23;8.20;;;;;;;5.37;69.38;97954.94;6281929;28;20191;-52
2024/03/07 10:34:34;;;;;;;11.97;8.87;;;;;;;5.42;71.98;97965.72;6281894;28;20216;-56
2024/03/07 10:37:36;;;;;;;12.37;8.37;;;;;;;5.39;70.46;97923.03;6289765;28;20235;-52
2024/03/07 10:40:40;;;;;;;14.30;8.50;;;;;;;5.70;69.63;97962.06;6282694;28;20198;-51
2024/03/07 10:43:50;;;;;;;11.27;8.23;;;;;;;5.86;68.50;97953.72;6271568;28;20205;-53
2024/03/07 10:46:54;;;;;;;13.03;8.57;;;;;;;6.20;69.65;97954.50;6287169;28;20189;-54
2024/03/07 10:50:16;;;;;;;14.20;9.03;;;;;;;6.15;68.05;97959.59;6286688;28;20208;-55
2024/03/07 10:53:33;;;;;;;13.60;9.50;;;;;;;5.81;68.02;97958.81;6284592;28;20817;-53
2024/03/07 10:56:54;;;;;;;17.40;10.43;;;;;;;5.38;71.52;97961.03;6280121;28;20192;-56
2024/03/07 11:00:00;;;;;;;15.07;10.43;;;;;;;5.22;73.52;97956.09;6286659;28;20672;-53
2024/03/07 11:03:09;;;;;;;15.87;10.43;;;;;;;5.23;73.90;97960.41;6275517;28;20596;-51
2024/03/07 11:06:13;;;;;;;14.07;9.97;;;;;;;4.81;74.62;97942.00;6282548;28;20580;-55
2024/03/07 11:09:22;;;;;;;14.13;10.23;;;;;;;4.81;75.42;97971.03;6280905;28;20584;-50
2024/03/07 11:12:28;;;;;;;14.77;10.80;;;;;;;4.63;77.85;97960.19;6283237;28;20403;-55
2024/03/07 11:15:33;;;;;;;14.80;10.67;;;;;;;4.85;77.57;97955.63;6279620;28;20767;-48
2024/03/07 11:18:35;;;;;;;15.07;9.97;;;;;;;4.84;76.52;97954.81;6290449;28;20665;-54
2024/03/07 11:21:41;;;;;;;14.63;10.60;;;;;;;5.21;77.06;97931.53;6284649;28;20657;-52
2024/03/07 11:24:45;;;;;;;14.47;10.30;;;;;;;5.29;75.43;97956.94;6287846;28;20192;-54
2024/03/07 11:27:58;;;;;;;15.70;9.63;;;;;;;5.20;74.20;97964.25;6270039;28;20681;-55
2024/03/07 11:31:14;;;;;;;12.17;8.77;;;;;;;4.90;74.90;97951.38;6283261;28;20949;-56
2024/03/07 11:34:19;;;;;;;14.37;11.27;;;;;;;4.89;75.26;97960.31;6281598;28;20708;-56
2024/03/07 11:37:43;;;;;;;16.37;10.10;;;;;;;4.84;74.32;97964.56;6285129;28;20187;-55
2024/03/07 11:40:48;;;;;;;12.33;9.20;;;;;;;4.80;74.92;97956.22;6283415;28;20649;-55
2024/03/07 11:43:55;;;;;;;12.67;9.50;;;;;;;5.00;75.65;97952.81;6284140;28;20191;-56
2024/03/07 11:46:57;;;;;;;17.70;10.80;;;;;;;4.91;76.58;97957.47;6288391;28;20202;-56
2024/03/07 11:50:08;;;;;;;13.60;9.70;;;;;;;4.74;75.97;97927.97;6283334;28;20676;-55
2024/03/07 11:53:10;;;;;;;16.27;10.93;;;;;;;4.80;76.97;97958.84;6280432;28;20233;-56
2024/03/07 11:56:16;;;;;;;15.10;10.13;;;;;;;4.62;77.48;97963.84;6281318;28;20194;-51
2024/03/07 11:59:19;;;;;;;16.17;10.93;;;;;;;4.56;78.81;97965.47;6281023;28;20227;-55
2024/03/07 12:02:22;;;;;;;16.60;11.47;;;;;;;4.58;77.74;97966.09;6282956;28;20639;-57
2024/03/07 12:05:26;;;;;;;14.90;10.83;;;;;;;4.43;77.06;97965.38;6280711;28;20213;-55
2024/03/07 12:08:29;;;;;;;16.40;10.97;;;;;;;4.46;78.76;97965.00;6282046;28;20217;-53
2024/03/07 12:11:31;;;;;;;16.33;11.90;;;;;;;4.35;78.85;97965.56;6279572;28;20683;-54
2024/03/07 12:14:34;;;;;;;17.97;12.03;;;;;;;4.28;79.99;97967.34;6275028;28;20201;-53
2024/03/07 12:17:36;;;;;;;19.60;12.27;;;;;;;4.06;81.57;97974.50;6284772;28;20191;-56
2024/03/07 12:20:40;;;;;;;17.60;12.63;;;;;;;3.79;81.04;97913.72;6284925;28;20837;-53
2024/03/07 12:23:43;;;;;;;16.83;11.70;;;;;;;4.03;82.85;97962.53;6280942;28;20195;-53
2024/03/07 12:26:45;;;;;;;20.17;11.93;;;;;;;4.11;83.48;97961.56;6282892;28;20236;-53
2024/03/07 12:29:48;;;;;;;16.80;11.87;;;;;;;4.21;80.92;97950.69;6283836;28;20825;-56
2024/03/07 12:32:52;;;;;;;17.73;11.60;;;;;;;4.11;82.15;97953.66;6284784;28;20183;-56
2024/03/07 12:36:00;;;;;;;17.40;12.97;;;;;;;4.08;82.27;97946.13;6285658;28;20198;-56
2024/03/07 12:39:09;;;;;;;17.57;11.93;;;;;;;4.00;83.93;97944.47;6284419;28;20237;-55
2024/03/07 12:42:14;;;;;;;20.50;13.63;;;;;;;4.14;84.77;97925.09;6289878;28;20319;-54
2024/03/07 12:45:20;;;;;;;20.40;13.40;;;;;;;4.18;86.88;97954.50;6277765;28;20348;-54
2024/03/07 12:48:22;;;;;;;20.63;14.70;;;;;;;3.96;86.17;97932.69;6277841;28;20562;-54
2024/03/07 12:51:25;;;;;;;22.60;14.97;;;;;;;3.91;88.92;97945.63;6269352;28;20210;-53
2024/03/07 12:54:27;;;;;;;22.60;14.60;;;;;;;3.78;90.09;97950.78;6281965;28;20212;-51
2024/03/07 12:57:30;;;;;;;21.50;14.70;;;;;;;3.86;92.31;97950.66;6283765;28;20820;-51
2024/03/07 13:00:32;;;;;;;23.00;15.33;;;;;;;3.80;93.63;97952.25;6287461;28;20180;-51
2024/03/07 13:03:35;;;;;;;24.07;16.53;;;;;;;3.83;96.07;97956.31;6286979;28;20197;-47
2024/03/07 13:06:37;;;;;;;22.90;15.43;;;;;;;3.80;96.27;97954.88;6276522;28;20222;-54
2024/03/07 13:09:40;;;;;;;25.07;16.50;;;;;;;3.82;96.83;97958.13;6286402;28;20202;-57
2024/03/07 13:12:45;;;;;;;25.90;16.77;;;;;;;3.86;97.81;97955.94;6279080;28;20680;-55
2024/03/07 13:15:48;;;;;;;24.37;16.53;;;;;;;3.79;96.46;97955.91;6280964;28;20213;-50
2024/03/07 13:18:50;;;;;;;25.87;16.73;;;;;;;3.78;97.14;97956.88;6285886;28;20197;-56
2024/03/07 13:21:53;;;;;;;25.13;17.23;;;;;;;3.84;97.79;97953.50;6283663;28;20198;-57
2024/03/07 13:24:55;;;;;;;25.60;17.33;;;;;;;3.84;97.97;97964.03;6283559;28;20218;-54
2024/03/07 13:28:13;;;;;;;24.20;17.33;;;;;;;3.61;100.00;97930.00;6284207;28;20222;-56
2024/03/07 13:31:17;;;;;;;30.57;18.80;;;;;;;3.81;100.00;97961.78;6282111;28;20207;-55
2024/03/07 13:34:19;;;;;;;31.40;19.60;;;;;;;3.70;99.89;97951.78;6274571;28;20194;-57
2024/03/07 13:37:21;;;;;;;28.70;18.70;;;;;;;3.85;100.00;97959.56;6284423;28;20197;-52
2024/03/07 13:40:25;;;;;;;28.00;17.93;;;;;;;3.93;100.00;97962.06;6280992;28;20191;-56
2024/03/07 13:43:27;;;;;;;27.63;18.17;;;;;;;4.10;96.63;97952.84;6286549;28;20198;-54
2024/03/07 13:46:31;;;;;;;28.97;19.43;;;;;;;4.05;100.00;97957.06;6276315;28;20191;-54
2024/03/07 13:49:34;;;;;;;28.97;18.83;;;;;;;4.14;96.31;97964.63;6283484;28;20691;-56
2024/03/07 13:52:43;;;;;;;29.50;19.70;;;;;;;3.86;97.04;97930.38;6281586;28;20197;-56
2024/03/07 13:55:51;;;;;;;28.53;18.50;;;;;;;4.01;96.24;97964.53;6285249;28;20851;-52
2024/03/07 13:59:02;;;;;;;27.40;18.23;;;;;;;3.99;97.18;97957.81;6285302;28;20684;-55
2024/03/07 14:02:26;;;;;;;28.47;18.60;;;;;;;4.08;96.30;97954.84;6290525;28;20210;-54
2024/03/07 14:05:49;;;;;;;26.50;17.83;;;;;;;4.16;94.30;97953.91;6280525;28;20199;-54
2024/03/07 14:09:18;;;;;;;25.90;17.07;;;;;;;4.08;92.81;97954.03;6268640;28;20223;-56
2024/03/07 14:12:36;;;;;;;24.90;17.53;;;;;;;4.03;92.91;97961.72;6273290;28;20198;-53
2024/03/07 14:16:11;;;;;;;26.97;17.37;;;;;;;4.05;92.20;97955.25;6280727;28;20214;-55